createdAt,value
2022-08-17T00:00:03.712Z,8.30
2022-08-17T00:01:03.783Z,8.30
2022-08-17T00:02:05.841Z,8.20
2022-08-17T00:03:03.709Z,8.20
2022-08-17T00:04:06.879Z,7.50
2022-08-17T00:05:03.707Z,7.70
2022-08-17T00:06:03.703Z,7.60
2022-08-17T00:07:03.702Z,7.90
2022-08-17T00:08:03.714Z,8.00
2022-08-17T00:09:03.698Z,7.90
2022-08-17T00:10:03.765Z,7.40
2022-08-17T00:11:03.698Z,7.70
2022-08-17T00:12:34.934Z,7.50
2022-08-17T00:13:03.693Z,7.90
2022-08-17T00:14:03.699Z,7.70
2022-08-17T00:15:03.696Z,8.10
2022-08-17T00:16:03.693Z,7.50
2022-08-17T00:17:03.729Z,7.80
2022-08-17T00:18:03.689Z,7.70
2022-08-17T00:19:08.425Z,7.60
2022-08-17T00:20:03.685Z,7.90
2022-08-17T00:21:03.685Z,7.80
2022-08-17T00:22:32.499Z,7.40
2022-08-17T00:23:03.682Z,7.70
2022-08-17T00:24:03.682Z,8.10
2022-08-17T00:25:03.687Z,8.40
2022-08-17T00:26:03.678Z,8.20
2022-08-17T00:27:03.680Z,7.90
2022-08-17T00:28:03.676Z,8.50
2022-08-17T00:29:03.678Z,8.40
2022-08-17T00:30:03.676Z,8.50
2022-08-17T00:31:03.672Z,8.90
2022-08-17T00:33:14.350Z,7.90
2022-08-17T00:33:15.898Z,8.70
2022-08-17T00:34:03.666Z,7.90
2022-08-17T00:35:03.668Z,8.20
2022-08-17T00:36:03.669Z,8.10
2022-08-17T00:37:03.673Z,8.40
2022-08-17T00:38:03.658Z,8.50
2022-08-17T00:39:03.661Z,8.20
2022-08-17T00:40:03.744Z,8.90
2022-08-17T00:41:03.658Z,9.00
2022-08-17T00:42:03.659Z,9.20
2022-08-17T00:43:03.654Z,9.10
2022-08-17T00:44:03.660Z,9.10
2022-08-17T00:45:03.650Z,9.00
2022-08-17T00:46:03.655Z,9.00
2022-08-17T00:47:03.651Z,8.60
2022-08-17T00:48:03.652Z,8.70
2022-08-17T00:49:03.649Z,8.50
2022-08-17T00:50:03.650Z,8.40
2022-08-17T00:51:03.646Z,8.70
2022-08-17T00:52:03.653Z,8.30
2022-08-17T00:53:03.641Z,8.90
2022-08-17T00:54:03.645Z,9.30
2022-08-17T00:55:03.638Z,9.40
2022-08-17T00:56:03.642Z,9.20
2022-08-17T00:57:03.638Z,8.60
2022-08-17T00:58:03.639Z,9.00
2022-08-17T00:59:03.631Z,8.70
2022-08-17T01:00:04.047Z,8.50
2022-08-17T01:01:03.738Z,7.80
2022-08-17T01:02:03.709Z,7.90
2022-08-17T01:03:03.624Z,7.50
2022-08-17T01:04:03.637Z,7.90
2022-08-17T01:05:03.624Z,8.40
2022-08-17T01:06:03.623Z,8.10
2022-08-17T01:07:03.622Z,8.10
2022-08-17T01:08:03.620Z,7.90
2022-08-17T01:09:03.623Z,7.60
2022-08-17T01:10:03.621Z,7.70
2022-08-17T01:11:03.613Z,8.00
2022-08-17T01:12:03.619Z,8.20
2022-08-17T01:13:03.612Z,8.00
2022-08-17T01:14:03.608Z,8.50
2022-08-17T01:15:03.611Z,8.70
2022-08-17T01:16:03.610Z,8.50
2022-08-17T01:17:03.606Z,8.80
2022-08-17T01:18:03.606Z,8.70
2022-08-17T01:19:03.605Z,9.40
2022-08-17T01:20:03.597Z,9.20
2022-08-17T01:21:03.600Z,9.40
2022-08-17T01:22:03.598Z,10.30
2022-08-17T01:23:03.594Z,10.90
2022-08-17T01:24:03.598Z,11.40
2022-08-17T01:25:03.591Z,11.70
2022-08-17T01:26:03.592Z,11.00
2022-08-17T01:27:03.593Z,10.40
2022-08-17T01:28:03.589Z,9.00
2022-08-17T01:29:03.583Z,8.20
2022-08-17T01:30:03.585Z,8.60
2022-08-17T01:31:03.583Z,8.60
2022-08-17T01:32:03.592Z,8.70
2022-08-17T01:33:03.578Z,8.80
2022-08-17T01:34:03.575Z,8.70
2022-08-17T01:35:03.576Z,8.50
2022-08-17T01:36:03.588Z,8.80
2022-08-17T01:37:03.573Z,8.80
2022-08-17T01:38:03.572Z,8.70
2022-08-17T01:39:03.565Z,9.40
2022-08-17T01:40:03.609Z,9.40
2022-08-17T01:41:03.564Z,10.30
2022-08-17T01:42:03.562Z,11.30
2022-08-17T01:43:03.557Z,11.30
2022-08-17T01:44:03.557Z,11.30
2022-08-17T01:45:03.557Z,12.00
2022-08-17T01:46:04.167Z,12.00
2022-08-17T01:47:03.554Z,12.00
2022-08-17T01:48:03.553Z,11.60
2022-08-17T01:49:03.552Z,10.40
2022-08-17T01:50:03.546Z,10.00
2022-08-17T01:51:03.544Z,9.60
2022-08-17T01:52:03.544Z,9.40
2022-08-17T01:53:03.543Z,9.40
2022-08-17T01:54:03.537Z,10.10
2022-08-17T01:55:03.539Z,10.70
2022-08-17T01:56:03.532Z,9.70
2022-08-17T01:57:03.528Z,9.90
2022-08-17T01:58:03.526Z,10.60
2022-08-17T01:59:03.529Z,9.40
2022-08-17T02:00:03.528Z,8.80
2022-08-17T02:01:03.549Z,8.20
2022-08-17T02:02:03.520Z,8.10
2022-08-17T02:03:03.520Z,8.50
2022-08-17T02:04:03.517Z,8.70
2022-08-17T02:05:03.512Z,8.90
2022-08-17T02:06:03.512Z,8.40
2022-08-17T02:07:03.513Z,8.90
2022-08-17T02:08:03.509Z,8.20
2022-08-17T02:09:03.963Z,8.70
2022-08-17T02:10:03.506Z,8.40
2022-08-17T02:11:03.505Z,8.60
2022-08-17T02:12:47.444Z,8.60
2022-08-17T02:13:03.509Z,9.20
2022-08-17T02:14:04.160Z,8.60
2022-08-17T02:15:03.499Z,9.00
2022-08-17T02:16:03.495Z,9.00
2022-08-17T02:17:03.492Z,8.90
2022-08-17T02:18:03.489Z,8.90
2022-08-17T02:19:03.489Z,8.90
2022-08-17T02:20:03.521Z,9.00
2022-08-17T02:21:03.487Z,9.50
2022-08-17T02:22:03.493Z,9.20
2022-08-17T02:23:03.479Z,9.20
2022-08-17T02:24:03.478Z,9.10
2022-08-17T02:25:03.474Z,9.40
2022-08-17T02:26:03.476Z,9.10
2022-08-17T02:27:03.470Z,9.30
2022-08-17T02:28:03.476Z,9.20
2022-08-17T02:29:03.463Z,9.50
2022-08-17T02:30:03.467Z,9.40
2022-08-17T02:31:03.472Z,9.40
2022-08-17T02:32:03.463Z,9.20
2022-08-17T02:33:04.267Z,9.40
2022-08-17T02:34:05.178Z,8.90
2022-08-17T02:35:03.457Z,9.00
2022-08-17T02:36:03.458Z,9.20
2022-08-17T02:37:03.448Z,9.50
2022-08-17T02:38:03.445Z,9.50
2022-08-17T02:39:03.457Z,9.10
2022-08-17T02:40:03.503Z,9.10
2022-08-17T02:41:03.445Z,9.30
2022-08-17T02:42:03.441Z,9.40
2022-08-17T02:43:03.439Z,9.10
2022-08-17T02:44:03.434Z,9.40
2022-08-17T02:45:03.435Z,9.10
2022-08-17T02:46:03.427Z,9.40
2022-08-17T02:47:03.426Z,9.60
2022-08-17T02:48:03.425Z,9.50
2022-08-17T02:49:03.420Z,10.70
2022-08-17T02:50:03.419Z,11.60
2022-08-17T02:51:03.417Z,11.90
2022-08-17T02:52:03.422Z,12.40
2022-08-17T02:53:04.785Z,12.80
2022-08-17T02:54:40.591Z,13.50
2022-08-17T02:55:03.408Z,13.20
2022-08-17T02:56:03.405Z,13.50
2022-08-17T02:57:03.400Z,13.60
2022-08-17T02:58:03.400Z,13.50
2022-08-17T02:59:03.413Z,13.10
2022-08-17T03:00:03.394Z,13.10
2022-08-17T03:01:03.457Z,13.80
2022-08-17T03:02:03.450Z,13.20
2022-08-17T03:03:03.388Z,13.20
2022-08-17T03:04:03.384Z,13.60
2022-08-17T03:05:03.383Z,12.30
2022-08-17T03:06:03.380Z,11.30
2022-08-17T03:07:03.377Z,10.60
2022-08-17T03:08:03.375Z,9.30
2022-08-17T03:09:03.376Z,9.60
2022-08-17T03:10:03.369Z,9.60
2022-08-17T03:11:03.368Z,9.50
2022-08-17T03:12:03.364Z,9.40
2022-08-17T03:13:03.363Z,9.50
2022-08-17T03:14:03.360Z,9.30
2022-08-17T03:15:03.359Z,9.50
2022-08-17T03:16:03.355Z,9.40
2022-08-17T03:17:03.357Z,10.30
2022-08-17T03:18:03.352Z,12.30
2022-08-17T03:19:03.347Z,12.50
2022-08-17T03:20:03.356Z,13.10
2022-08-17T03:21:03.340Z,12.70
2022-08-17T03:22:08.794Z,13.40
2022-08-17T03:23:03.387Z,12.60
2022-08-17T03:24:05.899Z,11.50
2022-08-17T03:25:03.333Z,10.70
2022-08-17T03:26:03.329Z,10.50
2022-08-17T03:27:03.328Z,9.40
2022-08-17T03:28:03.327Z,9.90
2022-08-17T03:29:03.321Z,10.40
2022-08-17T03:30:03.329Z,11.30
2022-08-17T03:31:03.316Z,12.10
2022-08-17T03:32:03.315Z,11.80
2022-08-17T03:33:03.315Z,11.70
2022-08-17T03:34:03.306Z,11.00
2022-08-17T03:35:03.332Z,12.10
2022-08-17T03:36:03.305Z,12.10
2022-08-17T03:37:03.307Z,10.10
2022-08-17T03:38:03.299Z,9.20
2022-08-17T03:39:03.300Z,8.90
2022-08-17T03:40:03.321Z,9.30
2022-08-17T03:41:03.289Z,9.10
2022-08-17T03:42:03.289Z,9.30
2022-08-17T03:43:03.287Z,9.60
2022-08-17T03:44:03.285Z,9.60
2022-08-17T03:45:03.282Z,9.60
2022-08-17T03:46:03.283Z,9.80
2022-08-17T03:47:03.279Z,9.90
2022-08-17T03:48:03.274Z,9.50
2022-08-17T03:49:03.269Z,9.80
2022-08-17T03:50:03.269Z,9.70
2022-08-17T03:51:03.267Z,9.80
2022-08-17T03:52:03.263Z,10.00
2022-08-17T03:53:03.261Z,10.10
2022-08-17T03:54:03.260Z,9.70
2022-08-17T03:55:03.258Z,9.90
2022-08-17T03:56:03.259Z,10.60
2022-08-17T03:57:03.257Z,10.30
2022-08-17T03:58:03.250Z,10.10
2022-08-17T03:59:03.252Z,11.00
2022-08-17T04:00:03.245Z,10.30
2022-08-17T04:01:03.288Z,9.60
2022-08-17T04:02:03.241Z,9.20
2022-08-17T04:03:03.239Z,9.80
2022-08-17T04:04:03.243Z,9.60
2022-08-17T04:05:03.234Z,9.40
2022-08-17T04:06:03.243Z,9.80
2022-08-17T04:07:03.230Z,9.70
2022-08-17T04:08:03.228Z,9.90
2022-08-17T04:09:03.226Z,9.80
2022-08-17T04:10:03.225Z,10.10
2022-08-17T04:11:03.219Z,9.50
2022-08-17T04:12:04.889Z,9.80
2022-08-17T04:13:03.212Z,10.10
2022-08-17T04:14:03.211Z,9.70
2022-08-17T04:15:03.210Z,9.10
2022-08-17T04:16:03.204Z,9.50
2022-08-17T04:17:03.222Z,9.20
2022-08-17T04:18:03.207Z,9.40
2022-08-17T04:19:03.202Z,9.90
2022-08-17T04:20:03.204Z,9.80
2022-08-17T04:21:03.194Z,10.00
2022-08-17T04:22:03.200Z,9.80
2022-08-17T04:23:03.190Z,9.90
2022-08-17T04:24:03.189Z,10.50
2022-08-17T04:25:03.186Z,11.40
2022-08-17T04:26:03.194Z,11.30
2022-08-17T04:27:03.183Z,11.70
2022-08-17T04:28:03.183Z,12.00
2022-08-17T04:29:03.175Z,12.40
2022-08-17T04:30:03.174Z,12.00
2022-08-17T04:31:03.174Z,11.50
2022-08-17T04:32:03.175Z,11.90
2022-08-17T04:33:06.195Z,12.00
2022-08-17T04:34:03.165Z,11.60
2022-08-17T04:35:03.161Z,11.50
2022-08-17T04:36:03.164Z,10.90
2022-08-17T04:37:03.160Z,9.60
2022-08-17T04:38:03.168Z,9.40
2022-08-17T04:39:03.154Z,9.50
2022-08-17T04:40:04.381Z,9.40
2022-08-17T04:41:03.149Z,9.30
2022-08-17T04:42:03.152Z,9.20
2022-08-17T04:43:03.150Z,9.60
2022-08-17T04:44:03.145Z,9.30
2022-08-17T04:45:03.141Z,9.00
2022-08-17T04:46:03.143Z,9.20
2022-08-17T04:47:03.141Z,8.90
2022-08-17T04:48:03.135Z,8.90
2022-08-17T04:49:03.133Z,9.10
2022-08-17T04:50:03.208Z,8.40
2022-08-17T04:51:03.129Z,8.90
2022-08-17T04:52:04.655Z,9.10
2022-08-17T04:53:03.125Z,9.00
2022-08-17T04:54:03.125Z,8.90
2022-08-17T04:55:03.123Z,9.00
2022-08-17T04:56:03.119Z,8.80
2022-08-17T04:57:03.113Z,9.00
2022-08-17T04:58:03.118Z,8.50
2022-08-17T04:59:03.112Z,8.70
2022-08-17T05:00:03.208Z,9.40
2022-08-17T05:01:03.184Z,9.60
2022-08-17T05:02:03.106Z,9.00
2022-08-17T05:03:03.103Z,10.70
2022-08-17T05:04:20.861Z,12.30
2022-08-17T05:05:03.100Z,12.50
2022-08-17T05:06:03.097Z,12.40
2022-08-17T05:07:03.097Z,12.60
2022-08-17T05:08:03.094Z,12.30
2022-08-17T05:09:03.093Z,11.90
2022-08-17T05:10:03.091Z,11.90
2022-08-17T05:11:03.089Z,11.80
2022-08-17T05:12:03.087Z,12.30
2022-08-17T05:13:03.086Z,12.40
2022-08-17T05:14:03.086Z,11.20
2022-08-17T05:15:03.084Z,12.00
2022-08-17T05:16:03.082Z,11.90
2022-08-17T05:17:07.244Z,12.70
2022-08-17T05:18:03.083Z,12.70
2022-08-17T05:19:03.082Z,13.60
2022-08-17T05:20:03.077Z,13.30
2022-08-17T05:21:03.079Z,14.00
2022-08-17T05:22:03.079Z,13.80
2022-08-17T05:23:03.078Z,14.60
2022-08-17T05:24:03.071Z,13.60
2022-08-17T05:25:03.075Z,12.10
2022-08-17T05:26:03.073Z,10.00
2022-08-17T05:27:06.667Z,12.30
2022-08-17T05:28:03.076Z,11.60
2022-08-17T05:29:03.133Z,12.30
2022-08-17T05:30:03.073Z,10.10
2022-08-17T05:31:03.071Z,8.80
2022-08-17T05:32:03.073Z,8.70
2022-08-17T05:33:03.071Z,10.60
2022-08-17T05:34:03.072Z,11.30
2022-08-17T05:35:03.072Z,11.00
2022-08-17T05:36:03.075Z,10.20
2022-08-17T05:37:03.080Z,10.80
2022-08-17T05:38:03.077Z,12.60
2022-08-17T05:39:03.075Z,14.10
2022-08-17T05:40:03.187Z,13.90
2022-08-17T05:41:03.073Z,14.30
2022-08-17T05:42:03.075Z,15.50
2022-08-17T05:43:03.077Z,12.90
2022-08-17T05:44:05.408Z,12.80
2022-08-17T05:45:03.100Z,12.30
2022-08-17T05:46:03.073Z,12.40
2022-08-17T05:47:03.077Z,11.00
2022-08-17T05:48:03.078Z,12.60
2022-08-17T05:49:03.078Z,12.10
2022-08-17T05:50:03.079Z,12.50
2022-08-17T05:51:03.078Z,14.20
2022-08-17T05:52:03.078Z,15.60
2022-08-17T05:53:03.088Z,13.70
2022-08-17T05:54:03.082Z,12.10
2022-08-17T05:55:03.085Z,14.30
2022-08-17T05:56:03.087Z,13.40
2022-08-17T05:57:03.087Z,13.80
2022-08-17T05:58:03.088Z,14.10
2022-08-17T05:59:03.088Z,14.40
2022-08-17T06:00:03.093Z,15.60
2022-08-17T06:01:03.106Z,16.40
2022-08-17T06:02:03.092Z,18.30
2022-08-17T06:03:03.094Z,18.40
2022-08-17T06:04:03.095Z,19.20
2022-08-17T06:05:03.107Z,15.70
2022-08-17T06:06:03.138Z,15.10
2022-08-17T06:07:03.100Z,16.00
2022-08-17T06:08:03.106Z,13.50
2022-08-17T06:09:03.108Z,13.80
2022-08-17T06:10:03.108Z,15.00
2022-08-17T06:11:03.111Z,14.70
2022-08-17T06:12:03.109Z,14.60
2022-08-17T06:13:03.113Z,14.50
2022-08-17T06:14:03.112Z,14.40
2022-08-17T06:15:03.120Z,13.10
2022-08-17T06:16:03.129Z,14.10
2022-08-17T06:17:03.120Z,13.60
2022-08-17T06:18:03.138Z,14.00
2022-08-17T06:19:03.132Z,15.80
2022-08-17T06:20:03.134Z,18.00
2022-08-17T06:21:03.133Z,17.20
2022-08-17T06:22:03.136Z,18.50
2022-08-17T06:23:03.138Z,18.70
2022-08-17T06:24:03.139Z,18.70
2022-08-17T06:25:03.142Z,18.60
2022-08-17T06:26:03.147Z,18.20
2022-08-17T06:27:03.149Z,16.10
2022-08-17T06:28:03.176Z,17.90
2022-08-17T06:29:03.159Z,18.70
2022-08-17T06:30:03.159Z,18.70
2022-08-17T06:31:03.162Z,18.90
2022-08-17T06:32:03.167Z,19.10
2022-08-17T06:33:03.166Z,18.80
2022-08-17T06:34:03.174Z,18.20
2022-08-17T06:35:03.180Z,18.20
2022-08-17T06:36:06.196Z,18.30
2022-08-17T06:37:03.768Z,19.60
2022-08-17T06:38:03.187Z,18.40
2022-08-17T06:39:03.194Z,19.00
2022-08-17T06:40:03.257Z,19.00
2022-08-17T06:41:03.201Z,18.10
2022-08-17T06:42:03.206Z,18.40
2022-08-17T06:43:06.412Z,17.40
2022-08-17T06:44:03.222Z,18.20
2022-08-17T06:45:03.219Z,17.00
2022-08-17T06:46:04.116Z,17.40
2022-08-17T06:47:03.237Z,17.20
2022-08-17T06:48:03.233Z,17.50
2022-08-17T06:49:03.238Z,18.60
2022-08-17T06:50:03.259Z,17.20
2022-08-17T06:51:03.250Z,16.60
2022-08-17T06:52:03.255Z,16.50
2022-08-17T06:53:03.259Z,15.60
2022-08-17T06:54:03.265Z,14.90
2022-08-17T06:55:03.268Z,15.20
2022-08-17T06:56:03.278Z,13.30
2022-08-17T06:57:03.279Z,12.00
2022-08-17T06:58:05.891Z,12.10
2022-08-17T06:59:03.294Z,11.70
2022-08-17T07:00:03.296Z,11.40
2022-08-17T07:01:03.361Z,11.10
2022-08-17T07:02:03.307Z,11.10
2022-08-17T07:03:03.383Z,10.10
2022-08-17T07:04:06.759Z,9.40
2022-08-17T07:05:03.323Z,9.60
2022-08-17T07:06:03.329Z,8.60
2022-08-17T07:07:03.337Z,8.50
2022-08-17T07:08:03.343Z,8.60
2022-08-17T07:09:03.346Z,8.70
2022-08-17T07:10:03.353Z,8.10
2022-08-17T07:11:03.359Z,7.80
2022-08-17T07:12:03.365Z,7.80
2022-08-17T07:13:03.384Z,7.20
2022-08-17T07:14:03.391Z,7.10
2022-08-17T07:15:03.400Z,7.00
2022-08-17T07:16:03.402Z,7.00
2022-08-17T07:17:03.408Z,6.90
2022-08-17T07:18:03.544Z,6.70
2022-08-17T07:19:03.408Z,6.40
2022-08-17T07:20:03.418Z,6.20
2022-08-17T07:21:03.423Z,6.40
2022-08-17T07:22:03.428Z,6.30
2022-08-17T07:23:03.434Z,6.00
2022-08-17T07:24:03.439Z,6.00
2022-08-17T07:25:03.447Z,5.80
2022-08-17T07:26:03.455Z,5.40
2022-08-17T07:27:03.463Z,5.20
2022-08-17T07:28:05.298Z,5.30
2022-08-17T07:29:03.473Z,5.80
2022-08-17T07:30:06.867Z,5.60
2022-08-17T07:31:03.488Z,6.20
2022-08-17T07:32:03.496Z,6.40
2022-08-17T07:33:03.501Z,6.20
2022-08-17T07:34:03.512Z,6.00
2022-08-17T07:35:03.516Z,6.10
2022-08-17T07:36:03.525Z,6.20
2022-08-17T07:37:03.532Z,6.40
2022-08-17T07:38:03.538Z,6.50
2022-08-17T07:39:03.545Z,6.30
2022-08-17T07:40:15.248Z,6.40
2022-08-17T07:41:03.677Z,6.30
2022-08-17T07:42:03.564Z,6.40
2022-08-17T07:43:04.952Z,6.30
2022-08-17T07:44:03.595Z,6.50
2022-08-17T07:45:03.598Z,6.20
2022-08-17T07:46:03.597Z,6.40
2022-08-17T07:47:03.599Z,6.20
2022-08-17T07:48:03.611Z,5.80
2022-08-17T07:49:03.650Z,6.10
2022-08-17T07:50:03.622Z,6.40
2022-08-17T07:51:03.628Z,6.70
2022-08-17T07:52:47.388Z,5.90
2022-08-17T07:53:03.649Z,6.20
2022-08-17T07:54:14.029Z,6.60
2022-08-17T07:55:03.660Z,6.70
2022-08-17T07:56:03.667Z,6.90
2022-08-17T07:57:03.672Z,6.80
2022-08-17T07:58:03.689Z,6.60
2022-08-17T07:59:03.689Z,6.50
2022-08-17T08:00:03.702Z,5.50
2022-08-17T08:01:03.704Z,4.70
2022-08-17T08:02:03.810Z,4.20
2022-08-17T08:03:03.709Z,4.30
2022-08-17T08:04:03.721Z,4.90
2022-08-17T08:05:03.727Z,4.80
2022-08-17T08:06:03.736Z,4.80
2022-08-17T08:07:03.741Z,4.60
2022-08-17T08:08:03.751Z,4.80
2022-08-17T08:09:03.752Z,4.20
2022-08-17T08:10:03.767Z,3.90
2022-08-17T08:11:03.766Z,4.20
2022-08-17T08:12:03.772Z,4.30
2022-08-17T08:13:03.778Z,4.30
2022-08-17T08:14:03.782Z,4.20
2022-08-17T08:15:03.787Z,4.00
2022-08-17T08:16:03.794Z,4.00
2022-08-17T08:17:03.802Z,4.20
2022-08-17T08:18:03.803Z,4.10
2022-08-17T08:19:03.809Z,4.30
2022-08-17T08:20:19.723Z,4.60
2022-08-17T08:21:03.819Z,5.00
2022-08-17T08:22:03.829Z,4.60
2022-08-17T08:23:03.830Z,4.30
2022-08-17T08:24:03.836Z,4.00
2022-08-17T08:25:03.865Z,3.90
2022-08-17T08:26:03.848Z,3.60
2022-08-17T08:27:03.848Z,4.00
2022-08-17T08:28:03.856Z,4.10
2022-08-17T08:29:03.858Z,3.90
2022-08-17T08:30:03.866Z,4.20
2022-08-17T08:31:03.867Z,4.50
2022-08-17T08:32:03.893Z,5.40
2022-08-17T08:33:03.879Z,5.60
2022-08-17T08:34:03.883Z,4.60
2022-08-17T08:35:04.053Z,4.30
2022-08-17T08:36:03.890Z,4.10
2022-08-17T08:37:16.595Z,3.70
2022-08-17T08:38:03.898Z,3.70
2022-08-17T08:39:03.904Z,3.80
2022-08-17T08:40:03.997Z,3.30
2022-08-17T08:41:03.926Z,3.50
2022-08-17T08:42:03.919Z,3.30
2022-08-17T08:43:03.928Z,3.30
2022-08-17T08:44:03.931Z,3.50
2022-08-17T08:45:05.015Z,3.40
2022-08-17T08:46:03.935Z,3.40
2022-08-17T08:47:03.937Z,3.40
2022-08-17T08:48:05.651Z,3.40
2022-08-17T08:49:11.901Z,3.60
2022-08-17T08:50:05.381Z,3.70
2022-08-17T08:51:03.953Z,3.40
2022-08-17T08:52:03.954Z,3.40
2022-08-17T08:53:03.957Z,3.40
2022-08-17T08:54:03.968Z,3.30
2022-08-17T08:55:03.969Z,3.30
2022-08-17T08:56:03.972Z,3.30
2022-08-17T08:58:03.982Z,3.20
2022-08-17T08:59:03.983Z,3.40
2022-08-17T09:00:03.985Z,3.50
2022-08-17T09:01:04.020Z,3.30
2022-08-17T09:02:03.997Z,3.30
2022-08-17T09:03:03.996Z,3.50
2022-08-17T09:04:21.433Z,3.20
2022-08-17T09:05:17.050Z,3.60
2022-08-17T09:06:04.011Z,3.40
2022-08-17T09:07:04.014Z,3.40
2022-08-17T09:08:04.016Z,3.40
2022-08-17T09:09:04.019Z,3.20
2022-08-17T09:10:04.032Z,3.30
2022-08-17T09:11:04.027Z,3.10
2022-08-17T09:12:04.397Z,3.20
2022-08-17T09:13:09.905Z,3.20
2022-08-17T09:14:04.039Z,3.20
2022-08-17T09:15:04.042Z,3.50
2022-08-17T09:16:04.048Z,3.90
2022-08-17T09:17:04.050Z,4.00
2022-08-17T09:19:03.544Z,3.60
2022-08-17T09:19:04.944Z,3.60
2022-08-17T09:20:04.062Z,3.30
2022-08-17T09:21:04.074Z,3.30
2022-08-17T09:22:04.073Z,3.30
2022-08-17T09:23:04.083Z,3.40
2022-08-17T09:24:04.077Z,3.10
2022-08-17T09:25:04.080Z,3.30
2022-08-17T09:26:04.083Z,3.30
2022-08-17T09:27:04.085Z,3.20
2022-08-17T09:28:04.089Z,3.20
2022-08-17T09:29:04.621Z,3.20
2022-08-17T09:30:04.099Z,3.30
2022-08-17T09:31:04.102Z,3.40
2022-08-17T09:32:04.103Z,3.20
2022-08-17T09:33:04.105Z,3.30
2022-08-17T09:34:04.113Z,3.00
2022-08-17T09:35:04.116Z,3.10
2022-08-17T09:36:04.118Z,2.80
2022-08-17T09:37:04.120Z,2.80
2022-08-17T09:38:04.125Z,2.90
2022-08-17T09:39:04.130Z,2.80
2022-08-17T09:40:04.242Z,2.70
2022-08-17T09:41:04.137Z,2.70
2022-08-17T09:42:04.142Z,2.80
2022-08-17T09:43:04.142Z,2.80
2022-08-17T09:44:04.166Z,2.60
2022-08-17T09:45:04.149Z,2.90
2022-08-17T09:46:04.167Z,3.00
2022-08-17T09:47:04.163Z,2.80
2022-08-17T09:48:04.163Z,2.70
2022-08-17T09:49:04.162Z,2.80
2022-08-17T09:50:04.172Z,2.80
2022-08-17T09:51:06.599Z,2.90
2022-08-17T09:52:04.179Z,2.90
2022-08-17T09:53:04.186Z,2.90
2022-08-17T09:54:34.907Z,2.60
2022-08-17T09:55:04.190Z,2.80
2022-08-17T09:56:04.189Z,3.10
2022-08-17T09:57:27.940Z,2.90
2022-08-17T09:58:04.204Z,2.90
2022-08-17T09:59:04.214Z,3.00
2022-08-17T10:00:04.215Z,2.80
2022-08-17T10:01:04.262Z,2.90
2022-08-17T10:02:04.216Z,2.90
2022-08-17T10:03:04.222Z,2.90
2022-08-17T10:04:04.224Z,3.00
2022-08-17T10:05:04.229Z,2.80
2022-08-17T10:06:06.479Z,2.50
2022-08-17T10:07:04.233Z,2.80
2022-08-17T10:08:04.236Z,2.80
2022-08-17T10:09:04.244Z,2.70
2022-08-17T10:10:04.246Z,2.70
2022-08-17T10:11:04.250Z,2.60
2022-08-17T10:12:04.254Z,2.70
2022-08-17T10:13:04.258Z,2.60
2022-08-17T10:14:36.032Z,2.80
2022-08-17T10:15:08.159Z,2.80
2022-08-17T10:16:04.269Z,2.70
2022-08-17T10:17:04.275Z,2.60
2022-08-17T10:18:04.275Z,2.60
2022-08-17T10:19:04.311Z,2.60
2022-08-17T10:20:04.288Z,2.70
2022-08-17T10:21:04.293Z,2.80
2022-08-17T10:22:33.010Z,2.40
2022-08-17T10:23:04.304Z,2.90
2022-08-17T10:24:04.304Z,2.80
2022-08-17T10:25:23.153Z,2.70
2022-08-17T10:26:04.311Z,2.70
2022-08-17T10:27:04.320Z,2.60
2022-08-17T10:28:04.319Z,2.60
2022-08-17T10:29:04.323Z,2.50
2022-08-17T10:30:04.330Z,2.80
2022-08-17T10:31:34.728Z,2.90
2022-08-17T10:32:04.338Z,2.60
2022-08-17T10:33:04.341Z,2.60
2022-08-17T10:34:04.346Z,2.60
2022-08-17T10:35:04.345Z,2.50
2022-08-17T10:36:08.742Z,2.40
2022-08-17T10:37:04.357Z,2.30
2022-08-17T10:38:04.361Z,2.50
2022-08-17T10:39:04.368Z,2.50
2022-08-17T10:40:04.438Z,2.50
2022-08-17T10:41:04.373Z,2.40
2022-08-17T10:42:04.379Z,2.40
2022-08-17T10:43:04.383Z,2.30
2022-08-17T10:44:40.851Z,2.40
2022-08-17T10:45:04.390Z,2.30
2022-08-17T10:46:10.624Z,2.20
2022-08-17T10:47:04.401Z,2.40
2022-08-17T10:48:06.518Z,2.40
2022-08-17T10:49:04.406Z,2.60
2022-08-17T10:50:04.411Z,2.60
2022-08-17T10:51:04.417Z,2.80
2022-08-17T10:52:04.421Z,2.50
2022-08-17T10:53:04.424Z,2.60
2022-08-17T10:54:04.428Z,2.70
2022-08-17T10:55:04.434Z,2.70
2022-08-17T10:56:04.445Z,2.80
2022-08-17T10:57:04.439Z,2.70
2022-08-17T10:58:04.444Z,2.70
2022-08-17T10:59:04.448Z,2.70
2022-08-17T11:00:04.454Z,2.80
2022-08-17T11:01:04.495Z,2.60
2022-08-17T11:02:04.468Z,2.60
2022-08-17T11:03:04.464Z,2.50
2022-08-17T11:04:04.471Z,2.60
2022-08-17T11:05:04.473Z,2.60
2022-08-17T11:06:04.476Z,2.50
2022-08-17T11:07:04.478Z,2.60
2022-08-17T11:08:04.487Z,2.70
2022-08-17T11:09:04.495Z,2.60
2022-08-17T11:10:04.496Z,2.50
2022-08-17T11:11:04.496Z,2.60
2022-08-17T11:12:04.504Z,2.70
2022-08-17T11:13:04.505Z,2.70
2022-08-17T11:14:04.509Z,2.60
2022-08-17T11:15:04.515Z,2.50
2022-08-17T11:16:08.232Z,2.50
2022-08-17T11:17:04.522Z,2.70
2022-08-17T11:18:04.527Z,2.70
2022-08-17T11:19:04.534Z,2.70
2022-08-17T11:20:04.536Z,2.60
2022-08-17T11:21:04.538Z,2.50
2022-08-17T11:22:04.544Z,2.50
2022-08-17T11:23:04.547Z,2.60
2022-08-17T11:24:04.598Z,2.80
2022-08-17T11:25:04.559Z,2.50
2022-08-17T11:26:04.563Z,2.50
2022-08-17T11:27:04.570Z,2.50
2022-08-17T11:28:04.571Z,2.50
2022-08-17T11:29:04.574Z,2.50
2022-08-17T11:30:04.579Z,2.50
2022-08-17T11:31:04.584Z,2.70
2022-08-17T11:32:04.598Z,2.50
2022-08-17T11:33:04.590Z,2.40
2022-08-17T11:34:04.596Z,2.50
2022-08-17T11:35:04.607Z,2.50
2022-08-17T11:36:04.605Z,2.80
2022-08-17T11:37:04.605Z,2.50
2022-08-17T11:38:04.612Z,2.50
2022-08-17T11:39:04.620Z,2.50
2022-08-17T11:40:04.688Z,2.60
2022-08-17T11:41:04.623Z,2.50
2022-08-17T11:42:04.632Z,2.40
2022-08-17T11:43:04.637Z,2.50
2022-08-17T11:44:04.640Z,2.40
2022-08-17T11:45:04.642Z,2.50
2022-08-17T11:46:04.649Z,2.60
2022-08-17T11:47:04.652Z,2.50
2022-08-17T11:48:31.093Z,2.70
2022-08-17T11:49:04.662Z,2.50
2022-08-17T11:50:04.669Z,2.60
2022-08-17T11:51:04.668Z,2.70
2022-08-17T11:52:04.673Z,2.30
2022-08-17T11:53:04.677Z,2.50
2022-08-17T11:54:31.174Z,2.40
2022-08-17T11:55:31.839Z,2.60
2022-08-17T11:56:04.692Z,2.70
2022-08-17T11:57:04.695Z,2.70
2022-08-17T11:58:04.701Z,2.50
2022-08-17T11:59:04.705Z,2.70
2022-08-17T12:00:04.709Z,2.60
2022-08-17T12:01:06.036Z,2.70
2022-08-17T12:02:04.718Z,2.70
2022-08-17T12:03:04.753Z,2.60
2022-08-17T12:04:04.765Z,2.60
2022-08-17T12:05:04.730Z,2.60
2022-08-17T12:06:04.735Z,2.50
2022-08-17T12:07:04.738Z,2.60
2022-08-17T12:08:04.744Z,2.80
2022-08-17T12:09:04.752Z,2.80
2022-08-17T12:10:04.756Z,2.70
2022-08-17T12:11:04.756Z,2.80
2022-08-17T12:12:13.759Z,2.50
2022-08-17T12:13:04.766Z,2.60
2022-08-17T12:14:04.769Z,2.70
2022-08-17T12:15:12.405Z,2.60
2022-08-17T12:16:04.782Z,2.60
2022-08-17T12:17:04.780Z,2.80
2022-08-17T12:18:04.790Z,2.70
2022-08-17T12:19:04.804Z,2.60
2022-08-17T12:20:04.801Z,2.50
2022-08-17T12:21:04.803Z,2.60
2022-08-17T12:22:04.809Z,2.60
2022-08-17T12:23:04.824Z,2.70
2022-08-17T12:24:04.817Z,2.70
2022-08-17T12:25:04.822Z,2.70
2022-08-17T12:26:04.831Z,2.70
2022-08-17T12:27:04.838Z,2.90
2022-08-17T12:28:07.435Z,2.90
2022-08-17T12:29:05.140Z,2.80
2022-08-17T12:30:04.849Z,3.00
2022-08-17T12:31:04.852Z,2.90
2022-08-17T12:32:04.859Z,3.00
2022-08-17T12:33:04.863Z,2.70
2022-08-17T12:34:04.872Z,2.70
2022-08-17T12:35:04.876Z,2.70
2022-08-17T12:36:04.883Z,2.80
2022-08-17T12:37:04.884Z,2.90
2022-08-17T12:38:04.893Z,2.80
2022-08-17T12:39:14.228Z,2.90
2022-08-17T12:40:05.009Z,2.80
2022-08-17T12:41:04.929Z,2.80
2022-08-17T12:42:04.914Z,2.70
2022-08-17T12:43:04.919Z,2.60
2022-08-17T12:44:04.933Z,2.60
2022-08-17T12:45:04.926Z,2.80
2022-08-17T12:46:13.486Z,2.60
2022-08-17T12:47:04.938Z,2.50
2022-08-17T12:48:04.944Z,2.60
2022-08-17T12:49:04.949Z,2.60
2022-08-17T12:50:05.013Z,2.50
2022-08-17T12:51:04.959Z,2.50
2022-08-17T12:52:04.967Z,2.40
2022-08-17T12:53:04.969Z,2.90
2022-08-17T12:54:04.987Z,2.60
2022-08-17T12:55:04.983Z,2.60
2022-08-17T12:56:04.991Z,2.60
2022-08-17T12:57:04.991Z,2.50
2022-08-17T12:58:04.996Z,2.80
2022-08-17T12:59:05.002Z,2.70
2022-08-17T13:00:05.039Z,2.70
2022-08-17T13:01:05.013Z,2.70
2022-08-17T13:02:05.060Z,2.70
2022-08-17T13:03:05.024Z,2.70
2022-08-17T13:04:05.028Z,2.50
2022-08-17T13:05:05.034Z,2.50
2022-08-17T13:06:05.042Z,2.60
2022-08-17T13:07:05.045Z,2.50
2022-08-17T13:08:05.054Z,2.60
2022-08-17T13:09:05.055Z,2.40
2022-08-17T13:10:05.125Z,2.50
2022-08-17T13:11:05.069Z,2.40
2022-08-17T13:12:05.271Z,2.50